Ext San Antonio, Puerto Rico
Current Conditions -  °F | °C
As of 9:53 AM on Thursday 23 Oct 2014 (Local Time) from TJNR Reporting Station
Scattered Clouds Scattered Clouds  
Wind Chill: 86°   Ceiling: Unl
Heat Index: 96°   Visibility: 10mi
Dew Point: 76°   Wind: 12mph
Humidity: 72%   Direction: 120°ESE
Pressure: 29.98"   Gusts: NA
Location:  18.1494°N, 65.8294°W
Report Text: TJNR 231353Z AUTO 12010KT 10SM SCT025 30/24 A2998 RMK AO2 SLP153 T03000244
Loading
Personal Weather Stations






























Interactive Weather Map
Tropical Storm Tracking
New forecast layout! Learn more

10-Day Weather Forecast

Advertisements
Track Severe Weather on mobile